This is the latest recevied weather packets stored in our database for station/object KF7OVD-WX. If no packets are shown the sender has not sent any weather packets the latest 10 day(s).
| Time | Temp. | Humidity | Pressure | Rain* | Wind** | Luminosity | Snow |
|---|---|---|---|---|---|---|---|
| 1778233520 | 7.78° C | 47% | 1021 hPa | 0 mm | - | - | - |
| 1778230819 | 8.33° C | 43% | 1021 hPa | 0 mm | - | - | - |
| 1778230517 | 8.89° C | 42% | 1021 hPa | 0 mm | - | - | - |
| 1778229327 | 10° C | 42% | 1021 hPa | 0 mm | - | - | - |
| 1778227535 | 12.22° C | 38% | 1021.2 hPa | 0 mm | - | - | - |
| 1778226624 | 13.33° C | 34% | 1021 hPa | 0 mm | - | - | - |
| 1778222722 | 13.33° C | 35% | 1020.5 hPa | 0 mm | - | - | - |
| 1778221816 | 13.33° C | 35% | 1020.6 hPa | 0 mm | - | - | - |
| 1778221553 | 13.89° C | 35% | 1020.6 hPa | 0 mm | - | - | - |
| 1778220626 | 14.44° C | 32% | 1020.5 hPa | 0 mm | - | - | - |
| 1778220023 | 15.56° C | 30% | 1020.5 hPa | 0 mm | - | - | - |
| 1778218225 | 17.22° C | 26% | 1020.6 hPa | 0 mm | - | - | - |
| 1778214939 | 16.11° C | 30% | 1020.6 hPa | 0 mm | - | - | - |
| 1778214031 | 17.22° C | 29% | 1020.5 hPa | 0 mm | - | - | - |
| 1778213728 | 17.22° C | 28% | 1020.5 hPa | 0 mm | - | - | - |
| 1778213426 | 17.22° C | 28% | 1020.5 hPa | 0 mm | - | - | - |
| 1778211668 | 18.89° C | 26% | 1020 hPa | 0 mm | - | - | - |
| 1778211023 | 19.44° C | 24% | 1019.9 hPa | 0 mm | - | - | - |
| 1778210116 | 20.56° C | 23% | 1019.8 hPa | 0 mm | - | - | - |
| 1778208323 | 21.11° C | 24% | 1019.3 hPa | 0 mm | - | - | - |
| 1778208020 | 21.11° C | 25% | 1019.3 hPa | 0 mm | - | - | - |
| 1778207433 | 22.22° C | 25% | 1019.2 hPa | 0 mm | - | - | - |
| 1778205315 | 25° C | 20% | 1018.8 hPa | 0 mm | - | - | - |
| 1778204729 | 26.67° C | 19% | 1019 hPa | 0 mm | - | - | - |
| 1778204426 | 26.11° C | 19% | 1019 hPa | 0 mm | - | - | - |
* Rain latest hour (hover to see other rain measurements)
** Current wind speed in m/s (hover to see current wind gust speed)